Time;durP1;ratioP1;P1;durP2;ratioP2;P2;SDS_P1;SDS_P2;PMS_P1;PMS_P2;Temp;Humidity;BMP_temperature;BMP_pressure;BME280_temperature;BME280_humidity;BME280_pressure;Samples;Min_cycle;Max_cycle;Signal;HPM_P1;HPM_P2
2021/03/05 00:01:01;;;;;;;0.80;0.80;;;;;;;-0.44;60.23;101356.91;5048016;28;20328;-68
2021/03/05 00:03:28;;;;;;;1.00;0.37;;;;;;;-0.43;60.02;101356.00;5047389;28;20211;-68
2021/03/05 00:05:56;;;;;;;0.53;0.53;;;;;;;-0.43;60.44;101359.50;5045008;28;22284;-67
2021/03/05 00:08:24;;;;;;;1.20;1.10;;;;;;;-0.39;60.71;101358.56;5044525;28;20267;-68
2021/03/05 00:10:52;;;;;;;11.70;4.73;;;;;;;-0.37;60.96;101356.78;5046602;28;20199;-68
2021/03/05 00:13:21;;;;;;;1.67;0.50;;;;;;;-0.32;60.74;101367.28;5042568;28;20195;-68
2021/03/05 00:15:49;;;;;;;92.83;55.67;;;;;;;-0.68;60.42;101313.25;5046310;28;20692;-67
2021/03/05 00:18:17;;;;;;;2.43;1.93;;;;;;;-0.38;60.12;101355.03;5042547;28;20633;-68
2021/03/05 00:20:48;;;;;;;1.17;0.57;;;;;;;-0.42;59.94;101357.75;5061419;28;21844;-67
2021/03/05 00:23:16;;;;;;;0.30;0.30;;;;;;;-0.56;59.50;101365.84;5047863;28;20581;-67
2021/03/05 00:25:43;;;;;;;0.23;0.23;;;;;;;-0.55;59.96;101370.22;5048412;28;20804;-67
2021/03/05 00:28:12;;;;;;;0.60;0.30;;;;;;;-0.67;59.53;101367.72;5047423;28;20733;-68
2021/03/05 00:30:39;;;;;;;2.20;0.20;;;;;;;-0.72;59.79;101361.63;5045539;28;20217;-67
2021/03/05 00:33:08;;;;;;;0.77;0.20;;;;;;;-0.80;59.70;101363.50;5044721;28;20206;-67
2021/03/05 00:35:51;;;;;;;0.40;0.40;;;;;;;-1.08;60.11;101329.53;5045490;28;20229;-65
2021/03/05 00:38:18;;;;;;;0.73;0.40;;;;;;;-0.84;60.34;101374.97;5049709;28;20296;-66
2021/03/05 00:40:46;;;;;;;0.33;0.30;;;;;;;-0.81;60.92;101372.28;5053541;28;20229;-65
2021/03/05 00:43:14;;;;;;;0.57;0.30;;;;;;;-0.82;61.01;101387.22;5054300;28;20206;-66
2021/03/05 00:45:41;;;;;;;0.43;0.40;;;;;;;-0.89;61.45;101375.03;5047439;28;20293;-66
2021/03/05 00:48:09;;;;;;;0.40;0.40;;;;;;;-0.86;61.50;101382.00;5048237;28;20224;-66
2021/03/05 00:50:37;;;;;;;0.30;0.30;;;;;;;-1.23;61.92;101305.97;5044650;28;20200;-66
2021/03/05 00:53:06;;;;;;;0.57;0.50;;;;;;;-0.85;62.14;101376.72;5046640;28;20199;-65
2021/03/05 00:55:33;;;;;;;1.30;0.60;;;;;;;-0.91;61.90;101381.19;5045870;28;21103;-65
2021/03/05 00:58:07;;;;;;;0.20;0.20;;;;;;;-0.99;62.10;101373.34;5043733;28;20378;-68
2021/03/05 01:00:36;;;;;;;0.30;0.30;;;;;;;-0.97;62.84;101377.72;5050791;28;20298;-66
2021/03/05 01:03:05;;;;;;;0.20;0.20;;;;;;;-1.09;62.38;101351.50;5052518;28;20983;-67
2021/03/05 01:05:32;;;;;;;0.47;0.47;;;;;;;-0.96;62.00;101386.50;5050246;28;20201;-68
2021/03/05 01:08:05;;;;;;;0.20;0.20;;;;;;;-0.96;62.94;101384.72;5046598;28;20310;-67
2021/03/05 01:10:39;;;;;;;0.57;0.40;;;;;;;-0.96;63.47;101384.72;5052143;28;20329;-67
2021/03/05 01:13:07;;;;;;;0.20;0.20;;;;;;;-0.94;63.71;101390.84;5053173;28;20195;-68
2021/03/05 01:15:34;;;;;;;1410.27;484.67;;;;;;;-0.98;63.39;101378.59;5052121;28;20201;-68
2021/03/05 01:18:03;;;;;;;61.43;16.07;;;;;;;-0.90;63.93;101389.09;5049108;28;20689;-68
2021/03/05 01:20:31;;;;;;;1.70;1.27;;;;;;;-0.88;64.67;101383.78;5053443;28;20194;-67
2021/03/05 01:22:58;;;;;;;2.57;1.00;;;;;;;-0.87;65.14;101386.41;5050431;28;20267;-67
2021/03/05 01:25:28;;;;;;;0.50;0.50;;;;;;;-0.89;64.72;101392.59;5049713;28;20547;-67
2021/03/05 01:27:56;;;;;;;1.70;1.13;;;;;;;-0.88;64.94;101387.31;5050010;28;20334;-66
2021/03/05 01:30:24;;;;;;;1.13;0.50;;;;;;;-0.88;65.36;101391.69;5050708;28;20199;-67
2021/03/05 01:32:51;;;;;;;0.20;0.20;;;;;;;-0.93;64.88;101384.69;5051509;28;20204;-67
2021/03/05 01:35:22;;;;;;;0.93;0.40;;;;;;;-0.89;65.11;101392.59;5051908;28;20226;-68
2021/03/05 01:37:49;;;;;;;0.40;0.27;;;;;;;-0.93;65.27;101395.22;5048868;28;20359;-67
2021/03/05 01:40:18;;;;;;;0.30;0.30;;;;;;;-0.89;65.19;101389.97;5046634;28;20201;-67
2021/03/05 01:42:46;;;;;;;2.30;0.37;;;;;;;-0.86;65.94;101389.94;5053270;28;20225;-67
2021/03/05 01:45:16;;;;;;;0.77;0.30;;;;;;;-0.90;65.52;101385.59;5048759;28;20200;-67
2021/03/05 01:47:43;;;;;;;0.93;0.93;;;;;;;-0.95;65.81;101375.94;5052447;28;20207;-67
2021/03/05 01:50:14;;;;;;;1.03;0.30;;;;;;;-1.04;66.11;101367.25;5049755;28;20204;-66
2021/03/05 01:52:57;;;;;;;0.40;0.40;;;;;;;-0.90;65.56;101383.81;5047598;28;20320;-66
2021/03/05 01:55:25;;;;;;;0.13;0.13;;;;;;;-0.94;66.00;101380.31;5049079;28;20385;-68
2021/03/05 01:57:52;;;;;;;0.20;0.20;;;;;;;-1.06;65.90;101364.63;5048214;28;20194;-67
2021/03/05 02:00:25;;;;;;;0.67;0.47;;;;;;;-0.94;66.14;101382.94;5053655;28;20300;-68
2021/03/05 02:02:53;;;;;;;0.87;0.40;;;;;;;-0.96;65.28;101384.72;5049636;28;20679;-67
2021/03/05 02:05:21;;;;;;;0.27;0.27;;;;;;;-0.99;66.13;101379.50;5051115;28;20618;-67
2021/03/05 02:07:48;;;;;;;0.63;0.30;;;;;;;-0.93;66.73;101389.09;5049747;28;20215;-67
2021/03/05 02:10:17;;;;;;;0.20;0.20;;;;;;;-0.98;65.53;101389.13;5048139;28;20199;-67
2021/03/05 02:12:44;;;;;;;2.93;0.30;;;;;;;-0.90;66.53;101389.09;5050007;28;20277;-67
2021/03/05 02:15:12;;;;;;;2.37;0.30;;;;;;;-0.99;65.77;101383.88;5048223;28;20611;-66
2021/03/05 02:17:47;;;;;;;0.30;0.30;;;;;;;-1.15;66.46;101361.22;5048132;28;20239;-66
2021/03/05 02:20:23;;;;;;;0.33;0.33;;;;;;;-1.16;65.95;101373.53;5051541;28;20750;-66
2021/03/05 02:23:14;;;;;;;0.50;0.40;;;;;;;-1.06;66.00;101385.72;5046999;28;20207;-66
2021/03/05 02:26:17;;;;;;;5.20;0.50;;;;;;;-1.12;65.10;101377.88;5048272;28;20201;-66
2021/03/05 02:29:11;;;;;;;0.10;0.10;;;;;;;-1.12;65.68;101383.16;5048858;28;20217;-66
2021/03/05 02:31:43;;;;;;;0.20;0.20;;;;;;;-1.11;65.68;101379.63;5050113;28;20328;-65
2021/03/05 02:34:17;;;;;;;0.20;0.20;;;;;;;-1.09;66.27;101375.22;5047239;28;20225;-66
2021/03/05 02:36:50;;;;;;;0.10;0.10;;;;;;;-1.09;66.52;101372.56;5050355;28;20202;-66
2021/03/05 02:39:21;;;;;;;0.83;0.40;;;;;;;-1.05;66.81;101382.19;5050847;28;20537;-66
2021/03/05 02:41:53;;;;;;;0.60;0.30;;;;;;;-1.14;66.58;101384.06;5050097;28;20222;-66
2021/03/05 02:44:24;;;;;;;0.47;0.40;;;;;;;-1.07;66.36;101389.25;5050877;28;20203;-66
2021/03/05 02:46:59;;;;;;;0.17;0.13;;;;;;;-1.53;66.38;101307.16;5048485;28;20285;-66
2021/03/05 02:49:30;;;;;;;0.20;0.20;;;;;;;-1.44;66.82;101336.03;5048570;28;20311;-66
2021/03/05 02:52:01;;;;;;;0.43;0.40;;;;;;;-1.12;66.86;101388.41;5053948;28;20198;-66
2021/03/05 02:54:31;;;;;;;0.73;0.40;;;;;;;-1.15;66.44;101398.13;5052376;28;20956;-66
2021/03/05 02:56:59;;;;;;;0.20;0.20;;;;;;;-1.15;66.67;101388.44;5053826;28;20629;-66
2021/03/05 02:59:28;;;;;;;2.20;0.33;;;;;;;-1.13;67.06;101384.03;5051775;28;20304;-66
2021/03/05 03:01:58;;;;;;;13.27;4.47;;;;;;;-1.16;68.03;101381.44;5052839;28;20205;-66
2021/03/05 03:04:28;;;;;;;3.50;2.17;;;;;;;-1.18;68.18;101385.84;5052159;28;20201;-66
2021/03/05 03:06:57;;;;;;;1.83;1.10;;;;;;;-1.19;67.68;101389.38;5050985;28;20209;-66
2021/03/05 03:09:25;;;;;;;0.50;0.50;;;;;;;-1.20;67.88;101390.25;5054049;28;20704;-66
2021/03/05 03:11:52;;;;;;;2.73;0.40;;;;;;;-1.18;67.50;101392.88;5049776;28;20198;-65
2021/03/05 03:14:21;;;;;;;2.03;0.30;;;;;;;-1.15;67.67;101396.34;5054561;28;20289;-66
2021/03/05 03:16:50;;;;;;;0.40;0.40;;;;;;;-1.13;68.08;101386.66;5052023;28;20216;-66
2021/03/05 03:19:22;;;;;;;1.10;0.30;;;;;;;-1.09;67.24;101390.16;5050834;28;20207;-65
2021/03/05 03:21:50;;;;;;;0.47;0.30;;;;;;;-1.14;67.98;101395.47;5056634;28;20203;-66
2021/03/05 03:24:17;;;;;;;1.60;0.30;;;;;;;-1.24;67.59;101385.88;5056555;28;20209;-66
2021/03/05 03:26:44;;;;;;;0.27;0.27;;;;;;;-1.18;68.13;101400.78;5052665;28;20217;-66
2021/03/05 03:29:13;;;;;;;0.10;0.10;;;;;;;-1.28;68.47;101397.34;5053380;28;20209;-66
2021/03/05 03:31:41;;;;;;;1.00;0.40;;;;;;;-1.26;67.86;101406.97;5050279;28;20206;-67
2021/03/05 03:34:08;;;;;;;0.63;0.40;;;;;;;-1.25;68.07;101413.97;5053748;28;20667;-66
2021/03/05 03:36:37;;;;;;;0.50;0.50;;;;;;;-1.33;68.21;101420.22;5055617;28;20717;-65
2021/03/05 03:39:07;;;;;;;1.10;0.93;;;;;;;-1.25;68.24;101418.38;5059023;28;20206;-66
2021/03/05 03:41:36;;;;;;;1.53;0.57;;;;;;;-1.27;67.44;101431.56;5049658;28;20205;-66
2021/03/05 03:44:05;;;;;;;0.43;0.30;;;;;;;-1.22;68.74;101428.91;5057947;28;20445;-66
2021/03/05 03:46:33;;;;;;;0.23;0.23;;;;;;;-1.43;68.75;101402.75;5055419;28;20204;-66
2021/03/05 03:49:06;;;;;;;0.40;0.40;;;;;;;-1.26;69.02;101437.72;5049313;28;20221;-66
2021/03/05 03:51:41;;;;;;;0.20;0.20;;;;;;;-1.25;68.93;101428.91;5049469;28;20751;-66
2021/03/05 03:54:14;;;;;;;2.93;0.43;;;;;;;-1.29;69.08;101427.19;5067301;28;20296;-66
2021/03/05 03:56:42;;;;;;;0.23;0.23;;;;;;;-1.31;69.08;101429.84;5052780;28;20872;-66
2021/03/05 03:59:14;;;;;;;0.97;0.40;;;;;;;-1.34;68.72;101435.13;5050552;28;20193;-66
2021/03/05 04:01:45;;;;;;;0.10;0.10;;;;;;;-1.37;68.34;101429.91;5049830;28;20204;-65
2021/03/05 04:04:14;;;;;;;1.50;0.23;;;;;;;-1.36;68.78;101436.03;5053301;28;20607;-66
2021/03/05 04:06:44;;;;;;;1.37;0.30;;;;;;;-1.76;69.30;101377.56;5045709;28;20232;-66
2021/03/05 04:09:12;;;;;;;0.10;0.10;;;;;;;-1.45;69.12;101444.91;5050652;28;20299;-66
2021/03/05 04:11:40;;;;;;;0.27;0.27;;;;;;;-1.43;69.70;101437.84;5048590;28;20290;-67
2021/03/05 04:14:08;;;;;;;0.17;0.17;;;;;;;-1.53;69.64;101437.91;5049590;28;20261;-67
2021/03/05 04:16:36;;;;;;;0.20;0.20;;;;;;;-1.54;69.06;101441.44;5048313;28;20198;-67
2021/03/05 04:19:04;;;;;;;0.10;0.10;;;;;;;-1.51;69.74;101446.72;5052592;28;20320;-67
2021/03/05 04:21:35;;;;;;;0.37;0.37;;;;;;;-1.57;69.91;101447.59;5044931;28;20768;-67
2021/03/05 04:24:04;;;;;;;0.73;0.20;;;;;;;-1.52;69.81;101452.84;5051782;28;20197;-67
2021/03/05 04:26:31;;;;;;;0.57;0.27;;;;;;;-1.73;69.28;101425.78;5051842;28;20205;-68
2021/03/05 04:28:58;;;;;;;0.20;0.20;;;;;;;-1.69;69.68;101435.41;5053016;28;20217;-68
2021/03/05 04:31:27;;;;;;;0.90;0.63;;;;;;;-1.62;69.51;101450.25;5051162;28;20255;-68
2021/03/05 04:33:55;;;;;;;0.17;0.17;;;;;;;-1.60;69.26;101459.03;5051802;28;20235;-68
2021/03/05 04:36:23;;;;;;;0.30;0.30;;;;;;;-1.58;69.42;101462.50;5051277;28;20233;-68
2021/03/05 04:38:58;;;;;;;411.13;128.77;;;;;;;-1.70;68.54;101451.22;5053150;28;20280;-68
2021/03/05 04:41:27;;;;;;;5.43;2.27;;;;;;;-1.88;69.24;101431.13;5052272;28;20215;-66
2021/03/05 04:43:57;;;;;;;4.17;2.50;;;;;;;-1.88;69.55;101428.50;5050892;28;20584;-67
2021/03/05 04:46:26;;;;;;;8.30;5.57;;;;;;;-1.62;69.00;101466.06;5050535;28;20213;-67
2021/03/05 04:48:54;;;;;;;3.17;1.47;;;;;;;-2.01;68.89;101403.13;5053855;28;20732;-67
2021/03/05 04:51:21;;;;;;;16.57;10.10;;;;;;;-1.62;69.53;101468.69;5050399;28;20682;-67
2021/03/05 04:53:49;;;;;;;0.60;0.60;;;;;;;-1.68;69.07;101466.09;5049619;28;20244;-66
2021/03/05 04:56:16;;;;;;;0.80;0.80;;;;;;;-1.89;69.02;101418.84;5053274;28;20276;-66
2021/03/05 04:58:44;;;;;;;1.73;0.93;;;;;;;-1.59;68.96;101466.03;5050170;28;20195;-67
2021/03/05 05:01:11;;;;;;;1.83;0.60;;;;;;;-1.61;69.42;101466.94;5050331;28;20201;-66
2021/03/05 05:03:39;;;;;;;1.97;0.97;;;;;;;-1.65;69.45;101460.81;5052570;28;20629;-67
2021/03/05 05:06:06;;;;;;;0.80;0.70;;;;;;;-1.85;69.48;101436.34;5046464;28;20730;-67
2021/03/05 05:08:33;;;;;;;1.60;0.77;;;;;;;-1.67;69.31;101469.59;5045348;28;20219;-67
2021/03/05 05:11:01;;;;;;;1.20;1.17;;;;;;;-1.71;69.31;101455.59;5043210;28;20665;-67
2021/03/05 05:13:28;;;;;;;0.80;0.47;;;;;;;-1.67;68.75;101473.13;5044958;28;20202;-67
2021/03/05 05:15:56;;;;;;;10.70;6.70;;;;;;;-1.61;68.92;101473.06;5045985;28;20211;-67
2021/03/05 05:18:24;;;;;;;1.40;1.30;;;;;;;-1.71;69.08;101476.66;5043411;28;20663;-68
2021/03/05 05:20:52;;;;;;;0.70;0.60;;;;;;;-1.73;69.36;101473.16;5044419;28;20620;-67
2021/03/05 05:23:19;;;;;;;0.20;0.20;;;;;;;-1.82;68.97;101474.97;5045516;28;20254;-67
2021/03/05 05:25:46;;;;;;;1.37;0.80;;;;;;;-1.83;68.57;101481.13;5045631;28;20686;-67
2021/03/05 05:28:14;;;;;;;0.30;0.30;;;;;;;-1.84;69.07;101484.59;5045792;28;20217;-67
2021/03/05 05:30:41;;;;;;;0.30;0.30;;;;;;;-1.84;69.09;101474.94;5043678;28;20233;-66
2021/03/05 05:33:09;;;;;;;0.47;0.47;;;;;;;-1.91;69.09;101479.38;5047662;28;20189;-67
2021/03/05 05:35:36;;;;;;;0.70;0.70;;;;;;;-1.83;69.34;101482.00;5047793;28;20234;-67
2021/03/05 05:38:04;;;;;;;0.60;0.60;;;;;;;-1.86;69.36;101487.25;5047971;28;20201;-67
2021/03/05 05:40:32;;;;;;;1.40;0.50;;;;;;;-1.81;69.26;101485.50;5042347;28;20205;-66
2021/03/05 05:42:59;;;;;;;1.50;0.87;;;;;;;-1.89;68.76;101485.50;5047086;28;20209;-67
2021/03/05 05:45:27;;;;;;;0.23;0.23;;;;;;;-1.96;68.37;101481.16;5043579;28;20289;-66
2021/03/05 05:47:57;;;;;;;0.30;0.30;;;;;;;-2.03;68.70;101478.56;5041965;28;20206;-66
2021/03/05 05:50:27;;;;;;;0.40;0.40;;;;;;;-2.03;68.76;101481.22;5041218;28;20730;-66
2021/03/05 05:52:58;;;;;;;0.10;0.10;;;;;;;-2.04;68.87;101487.34;5043545;28;20199;-67
2021/03/05 05:55:26;;;;;;;0.20;0.20;;;;;;;-2.06;68.85;101489.13;5047228;28;20290;-67
2021/03/05 05:57:53;;;;;;;0.20;0.20;;;;;;;-2.11;69.07;101490.91;5046752;28;20210;-67
2021/03/05 06:00:22;;;;;;;1.40;0.40;;;;;;;-2.20;68.70;101476.88;5047826;28;20230;-71
2021/03/05 06:02:49;;;;;;;0.17;0.17;;;;;;;-2.03;68.70;101502.25;5051678;28;20260;-67
2021/03/05 06:05:17;;;;;;;4.63;0.30;;;;;;;-1.91;68.94;101508.31;5060531;28;20201;-67
2021/03/05 06:07:46;;;;;;;0.00;0.00;;;;;;;-1.90;68.98;101503.94;5059951;28;20280;-67
2021/03/05 06:10:14;;;;;;;0.13;0.13;;;;;;;-1.82;68.46;101510.06;5063294;28;20225;-67
2021/03/05 06:12:47;;;;;;;0.57;0.33;;;;;;;-1.80;68.49;101508.31;5072340;28;20224;-67
2021/03/05 06:15:17;;;;;;;0.20;0.20;;;;;;;-1.73;68.44;101507.38;5065770;28;20236;-67
2021/03/05 06:17:45;;;;;;;0.10;0.10;;;;;;;-1.71;68.05;101518.78;5063153;28;20205;-67
2021/03/05 06:20:14;;;;;;;0.20;0.20;;;;;;;-1.63;68.38;101522.22;5071085;28;20778;-67
2021/03/05 06:22:42;;;;;;;0.53;0.43;;;;;;;-1.60;68.38;101516.06;5062780;28;20197;-67
2021/03/05 06:25:11;;;;;;;0.10;0.10;;;;;;;-1.48;68.28;101513.38;5068000;28;20263;-67
2021/03/05 06:27:40;;;;;;;0.20;0.20;;;;;;;-1.35;68.61;101514.16;5059354;28;20631;-67
2021/03/05 06:30:08;;;;;;;0.20;0.20;;;;;;;-1.39;67.81;101520.34;5060719;28;20382;-67
2021/03/05 06:32:38;;;;;;;0.30;0.20;;;;;;;-1.39;67.68;101515.09;5059714;28;20548;-67
2021/03/05 06:35:10;;;;;;;0.87;0.40;;;;;;;-1.33;67.65;101531.72;5059004;28;20423;-67
2021/03/05 06:37:44;;;;;;;0.30;0.30;;;;;;;-1.22;68.13;101523.75;5075356;28;20361;-65
2021/03/05 06:40:30;;;;;;;0.30;0.30;;;;;;;-1.12;67.44;101533.34;5058828;28;20201;-66
2021/03/05 06:42:58;;;;;;;0.60;0.30;;;;;;;-1.14;66.96;101532.47;5060360;28;20221;-66
2021/03/05 06:45:36;;;;;;;0.17;0.17;;;;;;;-1.02;66.35;101542.91;5052212;28;20198;-65
2021/03/05 06:48:05;;;;;;;0.20;0.20;;;;;;;-0.89;67.36;101537.56;5052114;28;20670;-65
2021/03/05 06:50:34;;;;;;;128.23;79.63;;;;;;;-0.81;66.26;101552.44;5057800;28;20209;-65
2021/03/05 06:53:19;;;;;;;8.20;2.83;;;;;;;-0.69;66.54;101557.59;5048261;28;20707;-65
2021/03/05 06:55:47;;;;;;;0.47;0.47;;;;;;;-0.66;66.48;101554.91;5053404;28;20557;-66
2021/03/05 06:58:14;;;;;;;2.40;1.03;;;;;;;-0.51;66.89;101560.97;5054356;28;20691;-66
2021/03/05 07:00:42;;;;;;;6.70;0.63;;;;;;;-0.36;66.03;101574.88;5062194;28;20205;-68
2021/03/05 07:03:19;;;;;;;0.87;0.70;;;;;;;-0.20;66.24;101565.06;5080430;28;20682;-69
2021/03/05 07:05:48;;;;;;;4.10;1.27;;;;;;;-0.10;65.92;101569.34;5058783;28;20214;-69
2021/03/05 07:08:37;;;;;;;4.90;1.00;;;;;;;0.11;66.47;101577.91;5061408;28;20561;-68
2021/03/05 07:11:08;;;;;;;1.83;0.30;;;;;;;0.24;65.88;101585.66;5060635;28;20357;-69
2021/03/05 07:13:47;;;;;;;1.37;0.50;;;;;;;0.30;65.02;101582.06;5065802;28;20621;-69
2021/03/05 07:16:15;;;;;;;0.57;0.37;;;;;;;0.37;65.20;101580.25;5065372;28;20198;-68
2021/03/05 07:18:42;;;;;;;1.33;1.23;;;;;;;0.38;64.08;101587.28;5065006;28;20198;-69
2021/03/05 07:21:10;;;;;;;0.67;0.47;;;;;;;0.54;64.69;101594.13;5065376;28;20222;-69
2021/03/05 07:23:38;;;;;;;0.80;0.50;;;;;;;0.49;63.55;101595.94;5065919;28;20203;-69
2021/03/05 07:26:07;;;;;;;0.50;0.50;;;;;;;0.45;64.21;101558.13;5068261;28;20203;-66
2021/03/05 07:28:36;;;;;;;0.40;0.30;;;;;;;0.78;62.06;101601.72;5067944;28;20638;-66
2021/03/05 07:31:04;;;;;;;0.87;0.33;;;;;;;0.82;63.08;101600.78;5068916;28;20286;-66
2021/03/05 07:33:38;;;;;;;3.13;2.47;;;;;;;0.89;62.42;101606.84;5062121;28;20286;-66
2021/03/05 07:36:09;;;;;;;0.20;0.20;;;;;;;1.03;62.24;101604.91;5069738;28;20329;-65
2021/03/05 07:38:40;;;;;;;5.93;0.60;;;;;;;1.00;61.64;101609.34;5068710;28;20192;-66
2021/03/05 07:41:11;;;;;;;0.33;0.30;;;;;;;1.04;61.49;101595.19;5071305;28;20201;-69
2021/03/05 07:43:39;;;;;;;0.20;0.20;;;;;;;1.15;61.48;101607.34;5061048;28;20193;-69
2021/03/05 07:46:06;;;;;;;0.20;0.20;;;;;;;1.25;61.50;101610.75;5070873;28;20222;-69
2021/03/05 07:48:35;;;;;;;0.40;0.40;;;;;;;1.20;60.26;101607.28;5062409;28;20212;-65
2021/03/05 07:51:03;;;;;;;0.83;0.30;;;;;;;1.14;60.15;101613.53;5065324;28;20210;-65
2021/03/05 07:53:30;;;;;;;1.37;0.43;;;;;;;1.32;60.95;101617.69;5065157;28;20200;-65
2021/03/05 07:55:57;;;;;;;0.20;0.20;;;;;;;1.33;59.87;101626.50;5065405;28;20292;-65
2021/03/05 07:58:47;;;;;;;0.20;0.20;;;;;;;1.30;59.24;101623.91;5066135;28;20217;-65
2021/03/05 08:01:14;;;;;;;1.80;0.73;;;;;;;1.38;59.32;101622.88;5060318;28;20198;-65
2021/03/05 08:03:55;;;;;;;0.00;0.00;;;;;;;1.43;58.72;101625.44;5064783;28;20211;-65
2021/03/05 08:06:27;;;;;;;0.20;0.20;;;;;;;1.45;59.19;101623.66;5078508;28;20216;-65
2021/03/05 08:09:09;;;;;;;0.70;0.10;;;;;;;1.51;58.75;101635.00;5072506;28;20213;-65
2021/03/05 08:11:38;;;;;;;0.10;0.10;;;;;;;1.36;58.39;101615.84;5059582;28;20204;-66
2021/03/05 08:14:25;;;;;;;0.20;0.20;;;;;;;1.58;58.30;101642.88;5061549;28;20201;-65
2021/03/05 08:16:53;;;;;;;0.20;0.20;;;;;;;1.38;58.39;101637.88;5067743;28;20200;-65
2021/03/05 08:19:41;;;;;;;1.00;0.40;;;;;;;1.67;59.24;101640.06;5070940;28;20203;-65
2021/03/05 08:22:08;;;;;;;0.20;0.20;;;;;;;1.58;58.43;101634.94;5070574;28;20196;-65
2021/03/05 08:24:39;;;;;;;0.10;0.10;;;;;;;1.54;58.31;101637.63;5070320;28;20195;-66
2021/03/05 08:27:07;;;;;;;1.40;0.30;;;;;;;1.61;58.17;101645.47;5062681;28;20212;-67
2021/03/05 08:29:56;;;;;;;0.97;0.40;;;;;;;1.61;57.49;101648.97;5060468;28;20229;-69
2021/03/05 08:32:49;;;;;;;0.27;0.27;;;;;;;1.57;57.78;101649.06;5059915;28;20231;-68
2021/03/05 08:35:19;;;;;;;0.40;0.20;;;;;;;1.20;56.82;101596.69;5067222;28;20634;-69
2021/03/05 08:37:47;;;;;;;0.17;0.17;;;;;;;1.47;58.21;101638.59;5069000;28;20188;-69
2021/03/05 08:40:30;;;;;;;0.07;0.07;;;;;;;1.69;57.72;101664.72;5069777;28;20276;-69
2021/03/05 08:42:58;;;;;;;0.27;0.27;;;;;;;1.65;57.89;101647.16;5062486;28;20204;-69
2021/03/05 08:45:29;;;;;;;0.23;0.23;;;;;;;1.59;57.15;101657.84;5064303;28;20203;-69
2021/03/05 08:47:58;;;;;;;0.30;0.30;;;;;;;1.68;57.87;101661.22;5062241;28;20209;-69
2021/03/05 08:50:30;;;;;;;0.40;0.07;;;;;;;1.73;57.74;101653.19;5082045;28;20596;-65
2021/03/05 08:52:59;;;;;;;1578.53;549.17;;;;;;;1.75;58.35;101668.13;5063762;28;20196;-65
2021/03/05 08:55:30;;;;;;;1.20;1.10;;;;;;;1.56;57.45;101666.72;5063795;28;20284;-65
2021/03/05 08:57:57;;;;;;;2.57;0.40;;;;;;;1.60;57.37;101664.88;5063776;28;20217;-65
2021/03/05 09:00:30;;;;;;;0.77;0.77;;;;;;;1.64;57.44;101672.75;5062883;28;20250;-65
2021/03/05 09:03:04;;;;;;;0.93;0.67;;;;;;;1.85;57.80;101671.53;5062038;28;20212;-65
2021/03/05 09:05:34;;;;;;;0.27;0.27;;;;;;;1.90;57.66;101682.91;5066876;28;20210;-66
2021/03/05 09:08:02;;;;;;;0.30;0.20;;;;;;;1.92;57.35;101683.75;5066456;28;20288;-66
2021/03/05 09:10:44;;;;;;;0.47;0.47;;;;;;;1.92;57.17;101681.13;5067670;28;20220;-66
2021/03/05 09:13:13;;;;;;;0.50;0.50;;;;;;;1.97;57.39;101686.31;5067678;28;20212;-66
2021/03/05 09:15:44;;;;;;;23.87;15.07;;;;;;;2.02;57.32;101692.41;5070462;28;20310;-66
2021/03/05 09:18:12;;;;;;;34.57;22.93;;;;;;;2.01;56.84;101694.19;5067005;28;20200;-66
2021/03/05 09:20:44;;;;;;;0.40;0.40;;;;;;;1.93;56.53;101697.88;5063676;28;20565;-65
2021/03/05 09:23:29;;;;;;;7.57;1.73;;;;;;;1.76;56.11;101704.31;5065129;28;20204;-66
2021/03/05 09:25:59;;;;;;;0.30;0.30;;;;;;;1.64;55.65;101687.75;5062612;28;20190;-65
2021/03/05 09:28:37;;;;;;;0.40;0.40;;;;;;;1.75;55.88;101693.75;5061997;28;20207;-66
2021/03/05 09:31:06;;;;;;;0.30;0.30;;;;;;;1.86;56.42;101702.41;5064493;28;20213;-65
2021/03/05 09:33:35;;;;;;;0.27;0.27;;;;;;;1.97;56.96;101718.97;5068462;28;20211;-66
2021/03/05 09:36:07;;;;;;;0.40;0.30;;;;;;;1.58;56.31;101687.84;5068949;28;20310;-66
2021/03/05 09:38:35;;;;;;;0.30;0.30;;;;;;;1.76;56.25;101712.25;5064852;28;20226;-65
2021/03/05 09:41:10;;;;;;;0.03;0.03;;;;;;;1.80;55.35;101715.72;5064216;28;20192;-66
2021/03/05 09:43:38;;;;;;;0.20;0.20;;;;;;;1.91;55.15;101719.09;5065865;28;20213;-66
2021/03/05 09:46:20;;;;;;;1.73;0.50;;;;;;;1.98;55.45;101715.44;5065850;28;20196;-66
2021/03/05 09:48:48;;;;;;;0.40;0.40;;;;;;;1.97;55.48;101711.03;5063008;28;20231;-64
2021/03/05 09:51:16;;;;;;;0.10;0.10;;;;;;;1.92;55.90;101726.13;5063846;28;20218;-66
2021/03/05 09:53:52;;;;;;;0.87;0.57;;;;;;;1.89;55.36;101699.72;5064913;28;20208;-66
2021/03/05 09:56:21;;;;;;;0.20;0.20;;;;;;;1.97;55.13;101718.09;5062245;28;20630;-66
2021/03/05 09:58:57;;;;;;;0.20;0.20;;;;;;;2.11;55.85;101724.91;5062369;28;20208;-66
2021/03/05 10:01:27;;;;;;;0.20;0.20;;;;;;;2.25;56.68;101729.97;5056395;28;20677;-66
2021/03/05 10:03:56;;;;;;;0.80;0.20;;;;;;;2.33;56.73;101743.97;5057815;28;20661;-66
2021/03/05 10:06:25;;;;;;;0.20;0.20;;;;;;;2.02;56.91;101661.50;5063509;28;20577;-65
2021/03/05 10:09:04;;;;;;;0.20;0.20;;;;;;;2.38;55.34;101733.28;5063244;28;20292;-64
2021/03/05 10:11:35;;;;;;;0.20;0.20;;;;;;;2.36;56.18;101727.13;5062651;28;20288;-64
2021/03/05 10:14:05;;;;;;;2.83;0.30;;;;;;;2.22;54.36;101737.13;5063795;28;20189;-65
2021/03/05 10:16:35;;;;;;;0.10;0.10;;;;;;;2.31;54.02;101735.16;5057411;28;20283;-65
2021/03/05 10:19:07;;;;;;;0.20;0.20;;;;;;;2.42;55.96;101741.13;5083592;28;20193;-65
2021/03/05 10:21:35;;;;;;;0.30;0.20;;;;;;;2.29;53.26;101738.75;5058473;28;20203;-65
2021/03/05 10:24:06;;;;;;;0.60;0.30;;;;;;;2.25;53.13;101737.06;5061435;28;20196;-65
2021/03/05 10:26:34;;;;;;;0.20;0.20;;;;;;;2.13;53.91;101714.28;5064595;28;20208;-65
2021/03/05 10:29:03;;;;;;;0.10;0.10;;;;;;;2.31;53.31;101743.13;5065528;28;20782;-67
2021/03/05 10:31:48;;;;;;;0.70;0.27;;;;;;;2.43;53.33;101747.31;5058536;28;20193;-65
2021/03/05 10:34:23;;;;;;;26.77;0.60;;;;;;;2.55;54.45;101743.59;5059538;28;20197;-65
2021/03/05 10:36:52;;;;;;;0.20;0.20;;;;;;;2.61;53.81;101744.34;5062986;28;20296;-65
2021/03/05 10:39:20;;;;;;;0.33;0.30;;;;;;;2.63;55.21;101739.00;5066156;28;20647;-65
2021/03/05 10:41:56;;;;;;;0.63;0.40;;;;;;;2.45;52.78;101746.41;5063643;28;20196;-65
2021/03/05 10:44:24;;;;;;;0.20;0.20;;;;;;;2.51;53.17;101747.19;5063962;28;20193;-66
2021/03/05 10:46:52;;;;;;;0.20;0.20;;;;;;;2.73;55.19;101741.44;5061153;28;20744;-65
2021/03/05 10:49:20;;;;;;;5.03;0.73;;;;;;;2.75;54.10;101763.50;5064800;28;20528;-65
2021/03/05 10:51:47;;;;;;;0.70;0.23;;;;;;;2.72;53.94;101741.47;5066000;28;20204;-65
2021/03/05 10:54:15;;;;;;;0.30;0.30;;;;;;;2.79;54.25;101753.72;5068676;28;20584;-65
2021/03/05 10:56:42;;;;;;;1.03;0.37;;;;;;;2.99;55.40;101756.84;5063481;28;20207;-65
2021/03/05 10:59:11;;;;;;;0.20;0.20;;;;;;;2.92;53.03;101749.91;5063211;28;20302;-65
2021/03/05 11:01:38;;;;;;;0.20;0.20;;;;;;;2.95;52.91;101755.16;5054819;28;20203;-66
2021/03/05 11:04:07;;;;;;;0.20;0.20;;;;;;;2.84;53.88;101740.38;5058533;28;20318;-65
2021/03/05 11:06:35;;;;;;;0.50;0.40;;;;;;;2.98;51.75;101760.41;5068944;28;20193;-66
2021/03/05 11:09:04;;;;;;;0.13;0.13;;;;;;;2.79;51.57;101759.91;5068072;28;20201;-65
2021/03/05 11:11:31;;;;;;;0.20;0.20;;;;;;;2.97;54.09;101757.78;5064962;28;20202;-65
2021/03/05 11:13:59;;;;;;;1.40;0.30;;;;;;;2.85;51.44;101758.03;5062236;28;20231;-65
2021/03/05 11:16:26;;;;;;;1.37;0.37;;;;;;;3.11;53.05;101756.63;5062591;28;20197;-65
2021/03/05 11:18:54;;;;;;;1.00;0.40;;;;;;;3.27;52.05;101762.47;5062266;28;20192;-65
2021/03/05 11:21:23;;;;;;;1.20;0.23;;;;;;;3.34;53.06;101764.06;5062076;28;20194;-66
2021/03/05 11:23:52;;;;;;;0.13;0.13;;;;;;;3.48;53.56;101762.91;5059400;28;20248;-66
2021/03/05 11:26:19;;;;;;;5.30;0.30;;;;;;;3.66;55.21;101759.81;5062842;28;20232;-65
2021/03/05 11:28:46;;;;;;;11.87;0.70;;;;;;;3.66;51.37;101765.13;5064436;28;20295;-65
2021/03/05 11:31:14;;;;;;;0.17;0.17;;;;;;;3.65;53.02;101760.72;5061860;28;21831;-65
2021/03/05 11:33:43;;;;;;;0.20;0.20;;;;;;;3.28;50.05;101758.03;5058077;28;20279;-65
2021/03/05 11:36:12;;;;;;;0.43;0.40;;;;;;;3.34;49.76;101764.06;5055180;28;20617;-65
2021/03/05 11:38:40;;;;;;;0.97;0.87;;;;;;;3.41;49.90;101764.84;5056830;28;20285;-65
2021/03/05 11:41:08;;;;;;;1.43;0.30;;;;;;;3.31;49.64;101771.22;5061317;28;20735;-65